createdAt,value
2022-10-13T00:02:32.392Z,12.56
2022-10-13T00:12:37.340Z,12.77
2022-10-13T00:22:42.286Z,12.82
2022-10-13T00:32:46.558Z,12.92
2022-10-13T00:42:49.519Z,12.82
2022-10-13T00:52:55.440Z,12.94
2022-10-13T01:02:59.831Z,12.97
2022-10-13T01:13:14.487Z,12.78
2022-10-13T01:23:37.183Z,12.85
2022-10-13T01:33:45.422Z,12.74
2022-10-13T01:43:53.196Z,12.67
2022-10-13T01:53:57.479Z,12.70
2022-10-13T02:04:13.705Z,12.70
2022-10-13T02:14:24.290Z,12.72
2022-10-13T02:24:27.447Z,12.57
2022-10-13T02:34:31.834Z,12.46
2022-10-13T02:44:34.699Z,12.54
2022-10-13T02:54:38.654Z,12.61
2022-10-13T03:04:41.734Z,12.60
2022-10-13T03:14:46.015Z,12.59
2022-10-13T03:24:48.934Z,12.56
2022-10-13T03:34:53.289Z,12.42
2022-10-13T03:44:56.772Z,12.47
2022-10-13T03:55:00.953Z,12.52
2022-10-13T04:05:03.920Z,12.42
2022-10-13T04:15:09.801Z,12.37
2022-10-13T04:25:12.976Z,12.33
2022-10-13T04:35:17.469Z,12.33
2022-10-13T04:45:20.303Z,12.40
2022-10-13T04:55:26.786Z,12.37
2022-10-13T05:05:29.814Z,12.38
2022-10-13T05:15:34.808Z,12.45
2022-10-13T05:25:38.688Z,12.51
2022-10-13T05:35:42.801Z,12.51
2022-10-13T05:45:45.654Z,12.46
2022-10-13T05:55:50.619Z,12.50
2022-10-13T06:05:53.755Z,12.49
2022-10-13T06:15:57.978Z,12.41
2022-10-13T06:26:00.963Z,12.40
2022-10-13T06:36:07.150Z,12.43
2022-10-13T06:46:10.318Z,12.51
2022-10-13T06:56:14.738Z,12.59
2022-10-13T07:06:18.811Z,12.71
2022-10-13T07:16:23.185Z,12.78
2022-10-13T07:26:26.449Z,12.80
2022-10-13T07:36:30.763Z,12.98
2022-10-13T07:46:34.127Z,13.02
2022-10-13T07:56:38.477Z,13.07
2022-10-13T08:06:43.249Z,13.19
2022-10-13T08:16:51.329Z,13.66
2022-10-13T08:26:56.555Z,13.78
2022-10-13T08:37:00.859Z,13.94
2022-10-13T08:47:10.651Z,14.14
2022-10-13T08:57:14.930Z,14.29
2022-10-13T09:07:22.626Z,14.42
2022-10-13T09:17:28.690Z,14.59
2022-10-13T09:27:43.619Z,14.64
2022-10-13T09:38:02.674Z,14.81
2022-10-13T09:48:08.670Z,14.93
2022-10-13T09:58:17.077Z,15.10
2022-10-13T10:08:33.190Z,15.27
2022-10-13T10:18:43.907Z,15.40
2022-10-13T10:28:57.522Z,15.58
2022-10-13T10:39:07.953Z,15.91
2022-10-13T10:49:19.003Z,16.07
2022-10-13T10:59:40.875Z,16.32
2022-10-13T11:10:05.965Z,16.48
2022-10-13T11:20:42.544Z,16.51
2022-10-13T11:30:50.746Z,16.47
2022-10-13T11:41:07.422Z,16.64
2022-10-13T11:51:23.789Z,16.70
2022-10-13T12:01:26.635Z,16.65
2022-10-13T12:11:33.219Z,16.63
2022-10-13T12:21:50.287Z,16.56
2022-10-13T12:31:55.469Z,16.49
2022-10-13T12:42:00.587Z,16.51
2022-10-13T12:52:14.529Z,16.42
2022-10-13T13:02:22.895Z,16.28
2022-10-13T13:12:30.067Z,16.17
2022-10-13T13:22:34.704Z,15.99
2022-10-13T13:32:39.096Z,15.87
2022-10-13T13:42:42.339Z,15.97
2022-10-13T13:52:46.695Z,15.97
2022-10-13T14:02:50.504Z,15.99
2022-10-13T14:12:55.010Z,16.00
2022-10-13T14:22:57.877Z,15.95
2022-10-13T14:33:05.051Z,16.03
2022-10-13T14:43:08.006Z,15.99
2022-10-13T14:53:15.549Z,16.01
2022-10-13T15:03:18.420Z,16.03
2022-10-13T15:13:23.359Z,16.05
2022-10-13T15:23:26.750Z,16.03
2022-10-13T15:33:32.111Z,16.06
2022-10-13T15:43:35.752Z,16.02
2022-10-13T15:53:39.956Z,15.93
2022-10-13T16:03:43.560Z,15.89
2022-10-13T16:13:49.046Z,15.84
2022-10-13T16:23:51.803Z,15.81
2022-10-13T16:33:56.187Z,15.81
2022-10-13T16:43:59.092Z,15.70
2022-10-13T16:54:04.586Z,15.75
2022-10-13T17:04:07.740Z,15.68
2022-10-13T17:14:12.165Z,15.70
2022-10-13T17:24:15.750Z,15.76
2022-10-13T17:34:19.967Z,15.67
2022-10-13T17:44:24.370Z,15.60
2022-10-13T17:54:28.566Z,15.64
2022-10-13T18:04:31.230Z,15.66
2022-10-13T18:14:35.529Z,15.67
2022-10-13T18:24:38.763Z,15.70
2022-10-13T18:34:43.137Z,15.54
2022-10-13T18:44:46.095Z,15.51
2022-10-13T18:54:50.908Z,15.55
2022-10-13T19:04:54.200Z,15.42
2022-10-13T19:14:58.875Z,15.23
2022-10-13T19:25:01.814Z,15.10
2022-10-13T19:35:06.575Z,15.16
2022-10-13T19:45:10.270Z,15.17
2022-10-13T19:55:14.475Z,15.20
2022-10-13T20:05:19.926Z,15.21
2022-10-13T20:15:27.709Z,15.22
2022-10-13T20:25:37.795Z,15.23
2022-10-13T20:35:42.019Z,15.17
2022-10-13T20:45:44.666Z,15.24
2022-10-13T20:55:57.476Z,15.19
2022-10-13T21:06:03.686Z,15.25
2022-10-13T21:16:09.679Z,15.23
2022-10-13T21:26:16.290Z,15.23
2022-10-13T21:36:25.104Z,15.20
2022-10-13T21:46:29.786Z,15.20
2022-10-13T21:56:35.029Z,15.24
2022-10-13T22:06:38.738Z,15.23
2022-10-13T22:16:45.270Z,15.20
2022-10-13T22:26:49.973Z,15.15
2022-10-13T22:36:54.829Z,15.08
2022-10-13T22:46:57.978Z,15.05
2022-10-13T22:57:02.159Z,15.09
2022-10-13T23:07:05.153Z,15.06
2022-10-13T23:17:09.467Z,15.12
2022-10-13T23:27:12.386Z,15.13
2022-10-13T23:37:16.641Z,15.14
2022-10-13T23:47:19.865Z,15.08
2022-10-13T23:57:24.316Z,15.05
